Logan, North Dakota
Current Conditions -  °F | °C
As of 10:54 AM on Saturday 25 Oct 2014 (Local Time) from KMOT Reporting Station
Clear Clear  
Wind Chill: 47°   Ceiling: Unl
Heat Index: 49°   Visibility: 10mi
Dew Point: 31°   Wind: 6mph
Humidity: 50%   Direction: 220°SW
Pressure: 30.12"   Gusts: NA
Location:  48.1414°N, 101.387°W
Report Text: KMOT 251554Z 22005KT 10SM CLR 09/M01 A3012 RMK AO2 SLP211 T00941006
Loading
Personal Weather Stations






























Interactive Weather Map
Tropical Storm Tracking
New forecast layout! Learn more

10-Day Weather Forecast

Advertisements
Track Severe Weather on mobile